sensor_id;sensor_type;location;lat;lon;timestamp;P1;durP1;ratioP1;P2;durP2;ratioP2
28266;SDS011;15525;45.568;5.448;2022-08-19T00:01:09;8.70;;;6.95;;
28266;SDS011;15525;45.568;5.448;2022-08-19T00:03:35;9.77;;;7.35;;
28266;SDS011;15525;45.568;5.448;2022-08-19T00:06:00;10.32;;;7.40;;
28266;SDS011;15525;45.568;5.448;2022-08-19T00:08:26;9.38;;;7.47;;
28266;SDS011;15525;45.568;5.448;2022-08-19T00:10:51;8.70;;;7.30;;
28266;SDS011;15525;45.568;5.448;2022-08-19T00:13:17;12.45;;;7.47;;
28266;SDS011;15525;45.568;5.448;2022-08-19T00:15:43;11.13;;;7.75;;
28266;SDS011;15525;45.568;5.448;2022-08-19T00:18:09;10.68;;;7.68;;
28266;SDS011;15525;45.568;5.448;2022-08-19T00:20:35;8.80;;;7.35;;
28266;SDS011;15525;45.568;5.448;2022-08-19T00:23:05;11.15;;;7.88;;
28266;SDS011;15525;45.568;5.448;2022-08-19T00:25:31;14.43;;;8.25;;
28266;SDS011;15525;45.568;5.448;2022-08-19T00:27:56;8.48;;;7.28;;
28266;SDS011;15525;45.568;5.448;2022-08-19T00:30:22;10.20;;;7.72;;
28266;SDS011;15525;45.568;5.448;2022-08-19T00:32:47;10.02;;;7.88;;
28266;SDS011;15525;45.568;5.448;2022-08-19T00:35:13;10.93;;;8.10;;
28266;SDS011;15525;45.568;5.448;2022-08-19T00:37:39;10.23;;;8.23;;
28266;SDS011;15525;45.568;5.448;2022-08-19T00:40:08;10.63;;;7.63;;
28266;SDS011;15525;45.568;5.448;2022-08-19T00:42:35;12.10;;;8.38;;
28266;SDS011;15525;45.568;5.448;2022-08-19T00:45:01;9.73;;;8.07;;
28266;SDS011;15525;45.568;5.448;2022-08-19T00:47:27;10.55;;;7.93;;
28266;SDS011;15525;45.568;5.448;2022-08-19T00:49:54;10.27;;;8.38;;
28266;SDS011;15525;45.568;5.448;2022-08-19T00:54:55;12.20;;;8.13;;
28266;SDS011;15525;45.568;5.448;2022-08-19T00:57:24;12.18;;;8.00;;
28266;SDS011;15525;45.568;5.448;2022-08-19T00:59:54;9.60;;;8.38;;
28266;SDS011;15525;45.568;5.448;2022-08-19T01:02:21;10.85;;;8.40;;
28266;SDS011;15525;45.568;5.448;2022-08-19T01:04:47;9.73;;;8.15;;
28266;SDS011;15525;45.568;5.448;2022-08-19T01:07:13;10.02;;;7.40;;
28266;SDS011;15525;45.568;5.448;2022-08-19T01:09:38;9.35;;;7.38;;
28266;SDS011;15525;45.568;5.448;2022-08-19T01:12:04;10.57;;;7.30;;
28266;SDS011;15525;45.568;5.448;2022-08-19T01:14:29;10.13;;;7.75;;
28266;SDS011;15525;45.568;5.448;2022-08-19T01:16:56;11.05;;;7.78;;
28266;SDS011;15525;45.568;5.448;2022-08-19T01:19:33;9.93;;;8.27;;
28266;SDS011;15525;45.568;5.448;2022-08-19T01:24:36;11.45;;;8.48;;
28266;SDS011;15525;45.568;5.448;2022-08-19T01:27:03;10.70;;;8.55;;
28266;SDS011;15525;45.568;5.448;2022-08-19T01:29:30;10.57;;;8.95;;
28266;SDS011;15525;45.568;5.448;2022-08-19T01:31:55;10.93;;;8.95;;
28266;SDS011;15525;45.568;5.448;2022-08-19T01:34:21;11.45;;;9.05;;
28266;SDS011;15525;45.568;5.448;2022-08-19T01:36:47;10.88;;;8.98;;
28266;SDS011;15525;45.568;5.448;2022-08-19T01:39:23;11.57;;;9.38;;
28266;SDS011;15525;45.568;5.448;2022-08-19T01:41:50;12.02;;;8.68;;
28266;SDS011;15525;45.568;5.448;2022-08-19T01:44:19;13.55;;;10.05;;
28266;SDS011;15525;45.568;5.448;2022-08-19T01:46:49;13.13;;;10.18;;
28266;SDS011;15525;45.568;5.448;2022-08-19T01:49:16;14.40;;;10.52;;
28266;SDS011;15525;45.568;5.448;2022-08-19T01:51:43;14.02;;;9.55;;
28266;SDS011;15525;45.568;5.448;2022-08-19T01:54:10;10.93;;;9.15;;
28266;SDS011;15525;45.568;5.448;2022-08-19T01:56:37;13.48;;;9.45;;
28266;SDS011;15525;45.568;5.448;2022-08-19T01:59:04;11.38;;;9.23;;
28266;SDS011;15525;45.568;5.448;2022-08-19T02:01:35;12.05;;;9.20;;
28266;SDS011;15525;45.568;5.448;2022-08-19T02:04:00;12.48;;;9.30;;
28266;SDS011;15525;45.568;5.448;2022-08-19T02:06:27;13.02;;;10.00;;
28266;SDS011;15525;45.568;5.448;2022-08-19T02:08:53;12.00;;;9.07;;
28266;SDS011;15525;45.568;5.448;2022-08-19T02:11:22;12.55;;;9.82;;
28266;SDS011;15525;45.568;5.448;2022-08-19T02:13:51;12.73;;;9.02;;
28266;SDS011;15525;45.568;5.448;2022-08-19T02:16:17;12.70;;;9.35;;
28266;SDS011;15525;45.568;5.448;2022-08-19T02:18:43;11.07;;;9.25;;
28266;SDS011;15525;45.568;5.448;2022-08-19T02:21:09;11.13;;;8.93;;
28266;SDS011;15525;45.568;5.448;2022-08-19T02:23:35;12.55;;;8.93;;
28266;SDS011;15525;45.568;5.448;2022-08-19T02:26:01;10.63;;;8.85;;
28266;SDS011;15525;45.568;5.448;2022-08-19T02:28:27;11.60;;;8.68;;
28266;SDS011;15525;45.568;5.448;2022-08-19T02:30:52;9.52;;;7.97;;
28266;SDS011;15525;45.568;5.448;2022-08-19T02:33:18;10.00;;;8.23;;
28266;SDS011;15525;45.568;5.448;2022-08-19T02:35:44;11.60;;;8.15;;
28266;SDS011;15525;45.568;5.448;2022-08-19T02:38:11;9.60;;;7.63;;
28266;SDS011;15525;45.568;5.448;2022-08-19T02:41:00;9.15;;;7.15;;
28266;SDS011;15525;45.568;5.448;2022-08-19T02:43:30;9.15;;;7.07;;
28266;SDS011;15525;45.568;5.448;2022-08-19T02:45:57;8.13;;;6.80;;
28266;SDS011;15525;45.568;5.448;2022-08-19T02:48:23;9.25;;;7.40;;
28266;SDS011;15525;45.568;5.448;2022-08-19T02:50:51;9.27;;;7.00;;
28266;SDS011;15525;45.568;5.448;2022-08-19T02:53:20;9.45;;;7.43;;
28266;SDS011;15525;45.568;5.448;2022-08-19T02:55:49;9.25;;;7.05;;
28266;SDS011;15525;45.568;5.448;2022-08-19T02:58:15;8.95;;;6.28;;
28266;SDS011;15525;45.568;5.448;2022-08-19T03:00:45;8.48;;;6.70;;
28266;SDS011;15525;45.568;5.448;2022-08-19T03:03:15;9.27;;;7.25;;
28266;SDS011;15525;45.568;5.448;2022-08-19T03:05:41;9.27;;;7.32;;
28266;SDS011;15525;45.568;5.448;2022-08-19T03:08:07;9.55;;;7.07;;
28266;SDS011;15525;45.568;5.448;2022-08-19T03:10:40;10.13;;;6.95;;
28266;SDS011;15525;45.568;5.448;2022-08-19T03:13:12;8.68;;;7.28;;
28266;SDS011;15525;45.568;5.448;2022-08-19T03:15:44;8.50;;;6.90;;
28266;SDS011;15525;45.568;5.448;2022-08-19T03:18:10;8.40;;;6.90;;
28266;SDS011;15525;45.568;5.448;2022-08-19T03:20:40;9.05;;;7.65;;
28266;SDS011;15525;45.568;5.448;2022-08-19T03:23:07;8.88;;;7.35;;
28266;SDS011;15525;45.568;5.448;2022-08-19T03:25:36;8.80;;;7.45;;
28266;SDS011;15525;45.568;5.448;2022-08-19T03:28:02;9.48;;;7.30;;
28266;SDS011;15525;45.568;5.448;2022-08-19T03:30:28;9.50;;;7.25;;
28266;SDS011;15525;45.568;5.448;2022-08-19T03:32:53;8.75;;;7.20;;
28266;SDS011;15525;45.568;5.448;2022-08-19T03:35:19;12.70;;;7.30;;
28266;SDS011;15525;45.568;5.448;2022-08-19T03:37:45;12.38;;;7.72;;
28266;SDS011;15525;45.568;5.448;2022-08-19T03:40:10;10.43;;;7.38;;
28266;SDS011;15525;45.568;5.448;2022-08-19T03:42:36;10.88;;;7.22;;
28266;SDS011;15525;45.568;5.448;2022-08-19T03:45:02;8.30;;;7.22;;
28266;SDS011;15525;45.568;5.448;2022-08-19T03:47:27;9.45;;;7.28;;
28266;SDS011;15525;45.568;5.448;2022-08-19T03:49:53;9.18;;;7.35;;
28266;SDS011;15525;45.568;5.448;2022-08-19T03:52:18;12.23;;;7.53;;
28266;SDS011;15525;45.568;5.448;2022-08-19T03:54:44;9.93;;;7.72;;
28266;SDS011;15525;45.568;5.448;2022-08-19T03:57:10;9.38;;;7.50;;
28266;SDS011;15525;45.568;5.448;2022-08-19T03:59:36;9.43;;;7.57;;
28266;SDS011;15525;45.568;5.448;2022-08-19T04:02:06;10.00;;;7.60;;
28266;SDS011;15525;45.568;5.448;2022-08-19T04:04:35;10.35;;;7.70;;
28266;SDS011;15525;45.568;5.448;2022-08-19T04:07:02;16.63;;;8.52;;
28266;SDS011;15525;45.568;5.448;2022-08-19T04:09:28;10.48;;;7.82;;
28266;SDS011;15525;45.568;5.448;2022-08-19T04:11:54;9.98;;;8.52;;
28266;SDS011;15525;45.568;5.448;2022-08-19T04:14:22;9.65;;;8.05;;
28266;SDS011;15525;45.568;5.448;2022-08-19T04:16:50;10.25;;;7.60;;
28266;SDS011;15525;45.568;5.448;2022-08-19T04:19:16;10.75;;;8.15;;
28266;SDS011;15525;45.568;5.448;2022-08-19T04:21:43;12.73;;;9.15;;
28266;SDS011;15525;45.568;5.448;2022-08-19T04:24:10;11.48;;;8.15;;
28266;SDS011;15525;45.568;5.448;2022-08-19T04:26:37;12.85;;;8.88;;
28266;SDS011;15525;45.568;5.448;2022-08-19T04:29:07;12.13;;;8.57;;
28266;SDS011;15525;45.568;5.448;2022-08-19T04:31:34;10.25;;;9.00;;
28266;SDS011;15525;45.568;5.448;2022-08-19T04:34:01;11.05;;;8.90;;
28266;SDS011;15525;45.568;5.448;2022-08-19T04:36:32;12.43;;;8.90;;
28266;SDS011;15525;45.568;5.448;2022-08-19T04:39:10;11.15;;;8.48;;
28266;SDS011;15525;45.568;5.448;2022-08-19T04:41:38;11.75;;;9.13;;
28266;SDS011;15525;45.568;5.448;2022-08-19T04:44:22;12.63;;;9.80;;
28266;SDS011;15525;45.568;5.448;2022-08-19T04:46:48;13.20;;;9.70;;
28266;SDS011;15525;45.568;5.448;2022-08-19T04:49:15;10.75;;;8.73;;
28266;SDS011;15525;45.568;5.448;2022-08-19T04:51:43;12.30;;;9.60;;
28266;SDS011;15525;45.568;5.448;2022-08-19T04:54:10;10.43;;;8.70;;
28266;SDS011;15525;45.568;5.448;2022-08-19T04:56:36;11.23;;;8.43;;
28266;SDS011;15525;45.568;5.448;2022-08-19T04:59:03;11.55;;;9.02;;
28266;SDS011;15525;45.568;5.448;2022-08-19T05:01:29;11.70;;;8.13;;
28266;SDS011;15525;45.568;5.448;2022-08-19T05:03:58;10.98;;;8.85;;
28266;SDS011;15525;45.568;5.448;2022-08-19T05:06:25;10.85;;;8.90;;
28266;SDS011;15525;45.568;5.448;2022-08-19T05:08:51;10.85;;;8.93;;
28266;SDS011;15525;45.568;5.448;2022-08-19T05:11:22;11.25;;;8.10;;
28266;SDS011;15525;45.568;5.448;2022-08-19T05:13:51;10.05;;;8.10;;
28266;SDS011;15525;45.568;5.448;2022-08-19T05:16:20;12.80;;;8.43;;
28266;SDS011;15525;45.568;5.448;2022-08-19T05:18:47;12.50;;;8.85;;
28266;SDS011;15525;45.568;5.448;2022-08-19T05:21:31;11.43;;;8.27;;
28266;SDS011;15525;45.568;5.448;2022-08-19T05:24:16;12.80;;;8.50;;
28266;SDS011;15525;45.568;5.448;2022-08-19T05:26:43;10.68;;;8.95;;
28266;SDS011;15525;45.568;5.448;2022-08-19T05:29:18;13.48;;;9.13;;
28266;SDS011;15525;45.568;5.448;2022-08-19T05:31:45;14.48;;;9.95;;
28266;SDS011;15525;45.568;5.448;2022-08-19T05:34:14;11.20;;;8.77;;
28266;SDS011;15525;45.568;5.448;2022-08-19T05:36:41;12.85;;;9.50;;
28266;SDS011;15525;45.568;5.448;2022-08-19T05:39:10;13.18;;;9.02;;
28266;SDS011;15525;45.568;5.448;2022-08-19T05:41:45;15.13;;;9.80;;
28266;SDS011;15525;45.568;5.448;2022-08-19T05:44:13;12.77;;;9.70;;
28266;SDS011;15525;45.568;5.448;2022-08-19T05:46:40;14.70;;;9.90;;
28266;SDS011;15525;45.568;5.448;2022-08-19T05:49:08;14.70;;;9.85;;
28266;SDS011;15525;45.568;5.448;2022-08-19T05:51:34;12.15;;;9.38;;
28266;SDS011;15525;45.568;5.448;2022-08-19T05:54:02;11.95;;;9.57;;
28266;SDS011;15525;45.568;5.448;2022-08-19T05:56:29;12.07;;;8.77;;
28266;SDS011;15525;45.568;5.448;2022-08-19T05:58:55;13.60;;;9.98;;
28266;SDS011;15525;45.568;5.448;2022-08-19T06:01:21;12.57;;;9.73;;
28266;SDS011;15525;45.568;5.448;2022-08-19T06:03:47;12.60;;;9.93;;
28266;SDS011;15525;45.568;5.448;2022-08-19T06:06:13;12.07;;;9.27;;
28266;SDS011;15525;45.568;5.448;2022-08-19T06:08:40;12.40;;;9.25;;
28266;SDS011;15525;45.568;5.448;2022-08-19T06:11:22;14.82;;;9.32;;
28266;SDS011;15525;45.568;5.448;2022-08-19T06:13:51;12.05;;;9.13;;
28266;SDS011;15525;45.568;5.448;2022-08-19T06:16:19;12.25;;;9.20;;
28266;SDS011;15525;45.568;5.448;2022-08-19T06:18:51;12.32;;;8.93;;
28266;SDS011;15525;45.568;5.448;2022-08-19T06:21:18;11.77;;;8.20;;
28266;SDS011;15525;45.568;5.448;2022-08-19T06:23:45;13.07;;;9.18;;
28266;SDS011;15525;45.568;5.448;2022-08-19T06:26:12;12.93;;;9.13;;
28266;SDS011;15525;45.568;5.448;2022-08-19T06:28:38;13.48;;;9.18;;
28266;SDS011;15525;45.568;5.448;2022-08-19T06:31:07;12.05;;;8.32;;
28266;SDS011;15525;45.568;5.448;2022-08-19T06:33:33;11.15;;;8.50;;
28266;SDS011;15525;45.568;5.448;2022-08-19T06:35:59;11.55;;;8.93;;
28266;SDS011;15525;45.568;5.448;2022-08-19T06:38:24;12.35;;;8.52;;
28266;SDS011;15525;45.568;5.448;2022-08-19T06:40:50;13.40;;;9.07;;
28266;SDS011;15525;45.568;5.448;2022-08-19T06:43:15;10.10;;;8.32;;
28266;SDS011;15525;45.568;5.448;2022-08-19T06:45:41;10.32;;;7.93;;
28266;SDS011;15525;45.568;5.448;2022-08-19T06:48:07;12.55;;;8.02;;
28266;SDS011;15525;45.568;5.448;2022-08-19T06:50:32;10.25;;;7.65;;
28266;SDS011;15525;45.568;5.448;2022-08-19T06:52:58;11.00;;;8.25;;
28266;SDS011;15525;45.568;5.448;2022-08-19T06:55:23;9.15;;;7.57;;
28266;SDS011;15525;45.568;5.448;2022-08-19T06:57:48;10.20;;;7.82;;
28266;SDS011;15525;45.568;5.448;2022-08-19T07:00:15;10.02;;;7.95;;
28266;SDS011;15525;45.568;5.448;2022-08-19T07:02:41;10.15;;;7.95;;
28266;SDS011;15525;45.568;5.448;2022-08-19T07:05:08;9.80;;;7.35;;
28266;SDS011;15525;45.568;5.448;2022-08-19T07:07:33;10.40;;;8.32;;
28266;SDS011;15525;45.568;5.448;2022-08-19T07:09:59;8.90;;;7.40;;
28266;SDS011;15525;45.568;5.448;2022-08-19T07:12:26;9.65;;;7.43;;
28266;SDS011;15525;45.568;5.448;2022-08-19T07:14:53;8.38;;;6.97;;
28266;SDS011;15525;45.568;5.448;2022-08-19T07:17:18;9.10;;;6.45;;
28266;SDS011;15525;45.568;5.448;2022-08-19T07:19:45;10.07;;;7.47;;
28266;SDS011;15525;45.568;5.448;2022-08-19T07:22:10;10.82;;;7.15;;
28266;SDS011;15525;45.568;5.448;2022-08-19T07:24:36;10.65;;;7.28;;
28266;SDS011;15525;45.568;5.448;2022-08-19T07:27:03;10.65;;;7.15;;
28266;SDS011;15525;45.568;5.448;2022-08-19T07:29:31;10.73;;;7.28;;
28266;SDS011;15525;45.568;5.448;2022-08-19T07:31:59;8.05;;;6.90;;
28266;SDS011;15525;45.568;5.448;2022-08-19T07:34:26;10.68;;;7.28;;
28266;SDS011;15525;45.568;5.448;2022-08-19T07:36:52;9.95;;;7.88;;
28266;SDS011;15525;45.568;5.448;2022-08-19T07:39:22;9.68;;;8.00;;
28266;SDS011;15525;45.568;5.448;2022-08-19T07:41:49;9.25;;;7.50;;
28266;SDS011;15525;45.568;5.448;2022-08-19T07:44:15;9.82;;;8.10;;
28266;SDS011;15525;45.568;5.448;2022-08-19T07:46:44;9.02;;;7.60;;
28266;SDS011;15525;45.568;5.448;2022-08-19T07:49:13;11.15;;;8.15;;
28266;SDS011;15525;45.568;5.448;2022-08-19T07:51:44;10.85;;;8.52;;
28266;SDS011;15525;45.568;5.448;2022-08-19T07:54:18;11.88;;;8.80;;
28266;SDS011;15525;45.568;5.448;2022-08-19T07:56:44;9.73;;;8.45;;
28266;SDS011;15525;45.568;5.448;2022-08-19T07:59:09;11.15;;;8.77;;
28266;SDS011;15525;45.568;5.448;2022-08-19T08:01:35;9.48;;;8.23;;
28266;SDS011;15525;45.568;5.448;2022-08-19T08:04:01;10.00;;;7.82;;
28266;SDS011;15525;45.568;5.448;2022-08-19T08:06:45;10.95;;;8.70;;
28266;SDS011;15525;45.568;5.448;2022-08-19T08:09:31;11.85;;;9.45;;
28266;SDS011;15525;45.568;5.448;2022-08-19T08:14:56;12.68;;;8.77;;
28266;SDS011;15525;45.568;5.448;2022-08-19T08:17:25;11.93;;;9.90;;
28266;SDS011;15525;45.568;5.448;2022-08-19T08:19:52;15.93;;;9.75;;
28266;SDS011;15525;45.568;5.448;2022-08-19T08:22:19;13.98;;;10.60;;
28266;SDS011;15525;45.568;5.448;2022-08-19T08:25:06;14.07;;;10.27;;
28266;SDS011;15525;45.568;5.448;2022-08-19T08:27:35;14.18;;;10.52;;
28266;SDS011;15525;45.568;5.448;2022-08-19T08:30:02;15.18;;;11.32;;
28266;SDS011;15525;45.568;5.448;2022-08-19T08:32:30;13.80;;;10.63;;
28266;SDS011;15525;45.568;5.448;2022-08-19T08:34:56;15.63;;;11.38;;
28266;SDS011;15525;45.568;5.448;2022-08-19T08:37:21;14.70;;;11.15;;
28266;SDS011;15525;45.568;5.448;2022-08-19T08:39:47;15.57;;;11.63;;
28266;SDS011;15525;45.568;5.448;2022-08-19T08:47:30;15.43;;;11.23;;
28266;SDS011;15525;45.568;5.448;2022-08-19T08:50:03;15.80;;;11.30;;
28266;SDS011;15525;45.568;5.448;2022-08-19T08:55:53;17.55;;;10.68;;
28266;SDS011;15525;45.568;5.448;2022-08-19T09:01:48;16.63;;;11.90;;
28266;SDS011;15525;45.568;5.448;2022-08-19T09:04:14;16.15;;;11.73;;
28266;SDS011;15525;45.568;5.448;2022-08-19T09:06:51;15.52;;;11.65;;
28266;SDS011;15525;45.568;5.448;2022-08-19T09:17:07;17.65;;;12.60;;
28266;SDS011;15525;45.568;5.448;2022-08-19T09:19:46;15.90;;;12.35;;
28266;SDS011;15525;45.568;5.448;2022-08-19T09:22:18;17.75;;;12.60;;
28266;SDS011;15525;45.568;5.448;2022-08-19T09:24:46;18.90;;;13.77;;
28266;SDS011;15525;45.568;5.448;2022-08-19T09:27:13;18.63;;;13.20;;
28266;SDS011;15525;45.568;5.448;2022-08-19T09:29:39;16.23;;;12.23;;
28266;SDS011;15525;45.568;5.448;2022-08-19T09:32:04;26.95;;;13.45;;
28266;SDS011;15525;45.568;5.448;2022-08-19T09:34:30;17.90;;;12.90;;
28266;SDS011;15525;45.568;5.448;2022-08-19T09:36:57;18.27;;;13.75;;
28266;SDS011;15525;45.568;5.448;2022-08-19T09:39:23;15.23;;;12.27;;
28266;SDS011;15525;45.568;5.448;2022-08-19T09:41:49;18.73;;;12.40;;
28266;SDS011;15525;45.568;5.448;2022-08-19T09:44:15;17.17;;;13.43;;
28266;SDS011;15525;45.568;5.448;2022-08-19T09:46:40;16.45;;;12.60;;
28266;SDS011;15525;45.568;5.448;2022-08-19T09:49:06;18.52;;;13.75;;
28266;SDS011;15525;45.568;5.448;2022-08-19T09:51:32;17.83;;;13.85;;
28266;SDS011;15525;45.568;5.448;2022-08-19T09:53:59;19.65;;;13.68;;
28266;SDS011;15525;45.568;5.448;2022-08-19T09:56:26;19.13;;;14.02;;
28266;SDS011;15525;45.568;5.448;2022-08-19T09:58:52;16.90;;;13.40;;
28266;SDS011;15525;45.568;5.448;2022-08-19T10:01:22;18.80;;;13.95;;
28266;SDS011;15525;45.568;5.448;2022-08-19T10:03:50;22.77;;;14.90;;
28266;SDS011;15525;45.568;5.448;2022-08-19T10:06:18;20.65;;;15.30;;
28266;SDS011;15525;45.568;5.448;2022-08-19T10:08:44;20.70;;;15.57;;
28266;SDS011;15525;45.568;5.448;2022-08-19T10:11:11;23.85;;;16.98;;
28266;SDS011;15525;45.568;5.448;2022-08-19T10:13:39;24.30;;;16.58;;
28266;SDS011;15525;45.568;5.448;2022-08-19T10:16:06;17.98;;;14.52;;
28266;SDS011;15525;45.568;5.448;2022-08-19T10:18:34;18.98;;;15.38;;
28266;SDS011;15525;45.568;5.448;2022-08-19T10:21:14;20.95;;;15.50;;
28266;SDS011;15525;45.568;5.448;2022-08-19T10:23:46;23.73;;;15.50;;
28266;SDS011;15525;45.568;5.448;2022-08-19T10:26:14;19.00;;;15.00;;
28266;SDS011;15525;45.568;5.448;2022-08-19T10:28:45;19.27;;;15.20;;
28266;SDS011;15525;45.568;5.448;2022-08-19T10:31:13;20.00;;;15.70;;
28266;SDS011;15525;45.568;5.448;2022-08-19T10:33:44;24.10;;;15.70;;
28266;SDS011;15525;45.568;5.448;2022-08-19T10:36:12;20.20;;;15.73;;
28266;SDS011;15525;45.568;5.448;2022-08-19T10:38:43;21.15;;;15.05;;
28266;SDS011;15525;45.568;5.448;2022-08-19T10:41:17;22.10;;;15.23;;
28266;SDS011;15525;45.568;5.448;2022-08-19T10:43:45;19.08;;;14.32;;
28266;SDS011;15525;45.568;5.448;2022-08-19T10:46:14;19.40;;;15.27;;
28266;SDS011;15525;45.568;5.448;2022-08-19T10:48:41;21.80;;;16.55;;
28266;SDS011;15525;45.568;5.448;2022-08-19T10:51:07;19.40;;;15.25;;
28266;SDS011;15525;45.568;5.448;2022-08-19T10:53:53;22.48;;;16.10;;
28266;SDS011;15525;45.568;5.448;2022-08-19T10:56:20;21.23;;;16.58;;
28266;SDS011;15525;45.568;5.448;2022-08-19T10:59:04;23.83;;;16.55;;
28266;SDS011;15525;45.568;5.448;2022-08-19T11:01:30;21.77;;;16.50;;
28266;SDS011;15525;45.568;5.448;2022-08-19T11:03:59;22.38;;;17.77;;
28266;SDS011;15525;45.568;5.448;2022-08-19T11:06:26;23.70;;;16.90;;
28266;SDS011;15525;45.568;5.448;2022-08-19T11:08:52;20.15;;;15.40;;
28266;SDS011;15525;45.568;5.448;2022-08-19T11:11:19;22.98;;;16.63;;
28266;SDS011;15525;45.568;5.448;2022-08-19T11:13:46;20.65;;;15.88;;
28266;SDS011;15525;45.568;5.448;2022-08-19T11:16:14;20.25;;;15.52;;
28266;SDS011;15525;45.568;5.448;2022-08-19T11:18:42;22.27;;;17.52;;
28266;SDS011;15525;45.568;5.448;2022-08-19T11:21:23;27.13;;;18.25;;
28266;SDS011;15525;45.568;5.448;2022-08-19T11:23:52;23.73;;;16.85;;
28266;SDS011;15525;45.568;5.448;2022-08-19T11:26:20;22.75;;;17.08;;
28266;SDS011;15525;45.568;5.448;2022-08-19T11:28:47;22.73;;;17.50;;
28266;SDS011;15525;45.568;5.448;2022-08-19T11:31:15;26.73;;;17.38;;
28266;SDS011;15525;45.568;5.448;2022-08-19T11:33:43;23.33;;;17.02;;
28266;SDS011;15525;45.568;5.448;2022-08-19T11:36:11;21.27;;;16.17;;
28266;SDS011;15525;45.568;5.448;2022-08-19T11:38:37;23.80;;;17.08;;
28266;SDS011;15525;45.568;5.448;2022-08-19T11:41:04;20.00;;;16.63;;
28266;SDS011;15525;45.568;5.448;2022-08-19T11:43:32;20.85;;;16.25;;
28266;SDS011;15525;45.568;5.448;2022-08-19T11:45:58;23.88;;;17.85;;
28266;SDS011;15525;45.568;5.448;2022-08-19T11:48:24;22.05;;;17.10;;
28266;SDS011;15525;45.568;5.448;2022-08-19T11:50:51;23.17;;;18.30;;
28266;SDS011;15525;45.568;5.448;2022-08-19T11:53:20;22.90;;;17.15;;
28266;SDS011;15525;45.568;5.448;2022-08-19T11:55:46;23.00;;;17.02;;
28266;SDS011;15525;45.568;5.448;2022-08-19T11:58:13;24.45;;;18.30;;
28266;SDS011;15525;45.568;5.448;2022-08-19T12:00:40;23.38;;;18.17;;
28266;SDS011;15525;45.568;5.448;2022-08-19T12:03:06;23.67;;;18.20;;
28266;SDS011;15525;45.568;5.448;2022-08-19T12:05:32;25.60;;;18.80;;
28266;SDS011;15525;45.568;5.448;2022-08-19T12:07:57;26.88;;;19.63;;
28266;SDS011;15525;45.568;5.448;2022-08-19T12:10:25;25.08;;;18.45;;
28266;SDS011;15525;45.568;5.448;2022-08-19T12:12:50;26.73;;;18.25;;
28266;SDS011;15525;45.568;5.448;2022-08-19T12:15:16;25.88;;;19.10;;
28266;SDS011;15525;45.568;5.448;2022-08-19T12:17:42;26.23;;;19.77;;
28266;SDS011;15525;45.568;5.448;2022-08-19T12:20:08;23.95;;;16.92;;
28266;SDS011;15525;45.568;5.448;2022-08-19T12:22:36;27.65;;;19.23;;
28266;SDS011;15525;45.568;5.448;2022-08-19T12:25:02;26.98;;;19.08;;
28266;SDS011;15525;45.568;5.448;2022-08-19T12:27:30;29.83;;;18.80;;
28266;SDS011;15525;45.568;5.448;2022-08-19T12:29:55;24.20;;;17.52;;
28266;SDS011;15525;45.568;5.448;2022-08-19T12:32:21;26.10;;;17.52;;
28266;SDS011;15525;45.568;5.448;2022-08-19T12:34:46;26.27;;;19.17;;
28266;SDS011;15525;45.568;5.448;2022-08-19T12:37:12;26.48;;;18.52;;
28266;SDS011;15525;45.568;5.448;2022-08-19T12:39:39;26.73;;;19.70;;
28266;SDS011;15525;45.568;5.448;2022-08-19T12:42:07;28.58;;;19.67;;
28266;SDS011;15525;45.568;5.448;2022-08-19T12:44:34;29.70;;;19.60;;
28266;SDS011;15525;45.568;5.448;2022-08-19T12:47:00;24.23;;;18.08;;
28266;SDS011;15525;45.568;5.448;2022-08-19T12:49:28;29.17;;;19.88;;
28266;SDS011;15525;45.568;5.448;2022-08-19T12:51:54;26.10;;;19.73;;
28266;SDS011;15525;45.568;5.448;2022-08-19T12:54:20;26.52;;;18.92;;
28266;SDS011;15525;45.568;5.448;2022-08-19T12:56:45;25.23;;;19.23;;
28266;SDS011;15525;45.568;5.448;2022-08-19T12:59:11;27.35;;;19.20;;
28266;SDS011;15525;45.568;5.448;2022-08-19T13:01:37;26.02;;;18.42;;
28266;SDS011;15525;45.568;5.448;2022-08-19T13:04:03;25.70;;;19.17;;
28266;SDS011;15525;45.568;5.448;2022-08-19T13:06:28;27.83;;;19.25;;
28266;SDS011;15525;45.568;5.448;2022-08-19T13:08:54;24.95;;;19.02;;
28266;SDS011;15525;45.568;5.448;2022-08-19T13:11:20;30.27;;;19.60;;
28266;SDS011;15525;45.568;5.448;2022-08-19T13:13:49;27.50;;;18.08;;
28266;SDS011;15525;45.568;5.448;2022-08-19T13:16:16;29.65;;;19.83;;
28266;SDS011;15525;45.568;5.448;2022-08-19T13:18:45;26.13;;;19.38;;
28266;SDS011;15525;45.568;5.448;2022-08-19T13:21:16;25.45;;;18.45;;
28266;SDS011;15525;45.568;5.448;2022-08-19T13:23:42;27.38;;;18.58;;
28266;SDS011;15525;45.568;5.448;2022-08-19T13:26:08;26.40;;;18.92;;
28266;SDS011;15525;45.568;5.448;2022-08-19T13:28:35;25.75;;;18.80;;
28266;SDS011;15525;45.568;5.448;2022-08-19T13:31:20;24.92;;;18.60;;
28266;SDS011;15525;45.568;5.448;2022-08-19T13:34:06;25.15;;;16.95;;
28266;SDS011;15525;45.568;5.448;2022-08-19T13:36:33;25.95;;;18.42;;
28266;SDS011;15525;45.568;5.448;2022-08-19T13:38:58;24.45;;;18.50;;
28266;SDS011;15525;45.568;5.448;2022-08-19T13:41:24;23.08;;;17.70;;
28266;SDS011;15525;45.568;5.448;2022-08-19T13:43:50;27.05;;;18.95;;
28266;SDS011;15525;45.568;5.448;2022-08-19T13:46:16;25.00;;;18.30;;
28266;SDS011;15525;45.568;5.448;2022-08-19T13:48:41;24.80;;;17.77;;
28266;SDS011;15525;45.568;5.448;2022-08-19T13:51:08;24.92;;;17.27;;
28266;SDS011;15525;45.568;5.448;2022-08-19T13:53:35;27.50;;;19.45;;
28266;SDS011;15525;45.568;5.448;2022-08-19T13:56:06;25.83;;;17.02;;
28266;SDS011;15525;45.568;5.448;2022-08-19T13:58:35;22.42;;;17.17;;
28266;SDS011;15525;45.568;5.448;2022-08-19T14:01:02;22.60;;;16.98;;
28266;SDS011;15525;45.568;5.448;2022-08-19T14:03:29;24.83;;;18.15;;
28266;SDS011;15525;45.568;5.448;2022-08-19T14:05:55;22.63;;;17.38;;
28266;SDS011;15525;45.568;5.448;2022-08-19T14:08:21;22.20;;;17.10;;
28266;SDS011;15525;45.568;5.448;2022-08-19T14:10:47;22.98;;;16.23;;
28266;SDS011;15525;45.568;5.448;2022-08-19T14:13:18;24.90;;;17.08;;
28266;SDS011;15525;45.568;5.448;2022-08-19T14:15:45;22.92;;;16.40;;
28266;SDS011;15525;45.568;5.448;2022-08-19T14:18:12;20.45;;;15.13;;
28266;SDS011;15525;45.568;5.448;2022-08-19T14:20:39;19.92;;;15.57;;
28266;SDS011;15525;45.568;5.448;2022-08-19T14:23:05;24.98;;;16.77;;
28266;SDS011;15525;45.568;5.448;2022-08-19T14:25:31;22.05;;;15.43;;
28266;SDS011;15525;45.568;5.448;2022-08-19T14:27:57;22.42;;;16.58;;
28266;SDS011;15525;45.568;5.448;2022-08-19T14:30:28;23.75;;;17.33;;
28266;SDS011;15525;45.568;5.448;2022-08-19T14:32:58;22.60;;;17.52;;
28266;SDS011;15525;45.568;5.448;2022-08-19T14:35:26;21.75;;;16.42;;
28266;SDS011;15525;45.568;5.448;2022-08-19T14:37:52;23.20;;;17.17;;
28266;SDS011;15525;45.568;5.448;2022-08-19T14:40:23;22.83;;;16.70;;
28266;SDS011;15525;45.568;5.448;2022-08-19T14:42:51;23.60;;;17.30;;
28266;SDS011;15525;45.568;5.448;2022-08-19T14:45:23;22.23;;;16.15;;
28266;SDS011;15525;45.568;5.448;2022-08-19T14:47:52;24.65;;;17.63;;
28266;SDS011;15525;45.568;5.448;2022-08-19T14:50:18;23.63;;;15.93;;
28266;SDS011;15525;45.568;5.448;2022-08-19T14:52:47;22.27;;;16.35;;
28266;SDS011;15525;45.568;5.448;2022-08-19T14:55:17;18.85;;;15.10;;
28266;SDS011;15525;45.568;5.448;2022-08-19T14:57:43;22.80;;;15.77;;
28266;SDS011;15525;45.568;5.448;2022-08-19T15:00:09;21.92;;;16.35;;
28266;SDS011;15525;45.568;5.448;2022-08-19T15:02:39;21.67;;;15.13;;